Time;durP1;ratioP1;P1;durP2;ratioP2;P2;SDS_P1;SDS_P2;PMS_P1;PMS_P2;Temp;Humidity;BMP_temperature;BMP_pressure;BME280_temperature;BME280_humidity;BME280_pressure;Samples;Min_cycle;Max_cycle;Signal;HPM_P1;HPM_P2
2020/12/23 19:37:26;;;;;;;40.85;25.13;;;20.40;79.20;;;;;;5074433;28;20738;-47
2020/12/23 19:39:53;;;;;;;40.65;25.88;;;20.50;80.10;;;;;;5086610;28;20496;-47
2020/12/23 19:42:19;;;;;;;38.08;25.15;;;20.50;80.00;;;;;;5090222;28;20038;-47
2020/12/23 19:44:45;;;;;;;45.75;26.40;;;20.60;79.80;;;;;;5080607;28;20078;-48
2020/12/23 19:47:13;;;;;;;41.90;25.25;;;20.70;79.40;;;;;;5069937;28;20025;-48
2020/12/23 19:49:39;;;;;;;44.03;25.33;;;20.70;79.40;;;;;;5069508;28;20032;-47
2020/12/23 19:52:07;;;;;;;40.63;25.27;;;20.80;79.30;;;;;;5069487;28;20023;-47
2020/12/23 19:54:33;;;;;;;52.42;26.92;;;20.80;79.70;;;;;;5049548;28;20554;-48
2020/12/23 19:56:59;;;;;;;67.45;25.60;;;20.90;79.20;;;;;;5049672;28;20232;-48
2020/12/23 19:59:26;;;;;;;86.10;28.30;;;20.90;79.10;;;;;;5049718;28;20049;-48
2020/12/23 20:01:52;;;;;;;77.03;29.40;;;20.90;79.30;;;;;;5049575;28;20104;-47
2020/12/23 20:04:17;;;;;;;71.13;28.98;;;21.00;79.60;;;;;;5049708;28;20597;-40
2020/12/23 20:06:43;;;;;;;63.65;26.45;;;21.00;80.10;;;;;;5049568;28;20036;-40
2020/12/23 20:09:09;;;;;;;78.22;28.63;;;21.10;80.10;;;;;;5049539;28;20025;-39
2020/12/23 20:11:35;;;;;;;67.63;26.83;;;21.20;80.40;;;;;;5088978;28;20032;-39
2020/12/23 20:14:02;;;;;;;88.90;28.63;;;21.20;80.70;;;;;;5089545;28;20043;-40
2020/12/23 20:16:28;;;;;;;80.20;28.38;;;21.20;81.70;;;;;;5089630;28;20389;-40
2020/12/23 20:18:54;;;;;;;74.30;29.27;;;21.30;82.20;;;;;;5088701;28;20033;-40
2020/12/23 20:21:21;;;;;;;89.18;47.45;;;21.40;82.20;;;;;;5089306;28;20051;-40
2020/12/23 20:23:47;;;;;;;76.07;35.10;;;21.10;73.20;;;;;;5089328;28;20032;-40
2020/12/23 20:26:14;;;;;;;81.93;34.55;;;21.00;78.30;;;;;;5089175;28;20108;-40
2020/12/23 20:28:41;;;;;;;72.70;34.33;;;20.90;79.60;;;;;;5089279;28;20084;-40
2020/12/23 20:31:07;;;;;;;78.45;35.72;;;21.00;80.30;;;;;;5089213;28;20054;-40
2020/12/23 20:33:35;;;;;;;75.68;36.00;;;21.00;80.30;;;;;;5089135;28;20365;-39
2020/12/23 20:36:02;;;;;;;82.13;36.72;;;21.00;80.30;;;;;;5088931;28;20495;-40
2020/12/23 20:38:28;;;;;;;70.18;34.67;;;21.00;80.20;;;;;;5088976;28;20396;-40
2020/12/23 20:40:54;;;;;;;75.97;37.08;;;21.00;80.10;;;;;;5072382;28;20033;-40
2020/12/23 20:43:20;;;;;;;58.30;34.85;;;21.00;80.00;;;;;;5068681;28;20514;-40
2020/12/23 20:45:47;;;;;;;74.75;34.55;;;21.00;80.00;;;;;;5048652;28;20382;-41
2020/12/23 20:48:13;;;;;;;81.28;33.35;;;21.00;79.80;;;;;;5037950;28;20516;-40
2020/12/23 20:50:39;;;;;;;57.25;33.80;;;21.00;79.70;;;;;;5035404;28;20029;-40
2020/12/23 20:53:05;;;;;;;67.70;33.45;;;21.00;79.70;;;;;;5035557;28;20087;-40
2020/12/23 20:55:31;;;;;;;61.65;35.10;;;21.00;79.50;;;;;;5035305;28;20083;-40
2020/12/23 20:57:57;;;;;;;70.05;33.75;;;21.00;79.50;;;;;;5035181;28;20036;-40
2020/12/23 21:00:23;;;;;;;62.53;35.38;;;21.00;79.50;;;;;;5035341;28;20030;-39
2020/12/23 21:02:49;;;;;;;58.53;32.90;;;21.00;79.30;;;;;;5035179;28;20112;-39
2020/12/23 21:05:16;;;;;;;56.67;34.53;;;21.00;79.30;;;;;;5035207;28;20133;-40
2020/12/23 21:07:42;;;;;;;56.63;32.35;;;21.00;79.30;;;;;;5035114;28;20108;-39
2020/12/23 21:10:09;;;;;;;68.10;35.47;;;21.00;79.30;;;;;;5034898;28;20027;-39
2020/12/23 21:12:35;;;;;;;62.72;33.58;;;21.00;79.20;;;;;;5035083;28;20486;-39
2020/12/23 21:15:03;;;;;;;68.38;34.28;;;21.00;79.20;;;;;;5035140;28;20131;-40
2020/12/23 21:17:28;;;;;;;61.42;33.05;;;21.00;79.20;;;;;;5034940;28;20044;-40
2020/12/23 21:19:54;;;;;;;62.92;32.55;;;21.00;79.10;;;;;;5035072;28;20018;-40
2020/12/23 21:22:21;;;;;;;59.78;34.78;;;21.00;79.00;;;;;;5034772;28;20037;-39
2020/12/23 21:24:47;;;;;;;61.53;33.28;;;21.00;79.00;;;;;;5046211;28;20025;-40
2020/12/23 21:27:13;;;;;;;60.35;33.13;;;21.00;78.80;;;;;;5054190;28;20025;-40
2020/12/23 21:29:42;;;;;;;49.28;31.27;;;21.00;79.20;;;;;;5054630;28;20025;-40
2020/12/23 21:32:07;;;;;;;47.97;30.30;;;20.90;78.50;;;;;;5054694;28;20489;-40
2020/12/23 21:34:33;;;;;;;47.25;29.83;;;20.90;78.40;;;;;;5054378;28;20115;-40
2020/12/23 21:36:59;;;;;;;48.42;29.27;;;20.90;78.40;;;;;;5054380;28;20048;-42
2020/12/23 21:39:25;;;;;;;48.40;28.27;;;20.90;78.50;;;;;;5058648;28;20491;-42
2020/12/23 21:41:51;;;;;;;49.08;29.75;;;20.90;78.30;;;;;;5074434;28;20075;-42
2020/12/23 21:44:17;;;;;;;43.15;26.42;;;20.90;78.40;;;;;;5074304;28;20024;-42
2020/12/23 21:46:44;;;;;;;40.25;26.77;;;20.80;78.20;;;;;;5074392;28;20408;-42
2020/12/23 21:49:10;;;;;;;44.90;26.88;;;20.90;78.20;;;;;;5074363;28;20407;-42
2020/12/23 21:51:37;;;;;;;41.97;26.92;;;20.80;78.00;;;;;;5074126;28;20029;-43
2020/12/23 21:54:04;;;;;;;42.42;25.58;;;20.90;78.00;;;;;;5074299;28;20016;-43
2020/12/23 21:56:30;;;;;;;37.97;25.13;;;20.80;77.90;;;;;;5074133;28;20048;-42
2020/12/23 21:58:55;;;;;;;41.58;24.08;;;20.90;77.90;;;;;;5065764;28;20017;-43
2020/12/23 22:01:23;;;;;;;35.90;21.75;;;20.80;77.80;;;;;;5054103;28;20013;-42
2020/12/23 22:03:49;;;;;;;40.92;23.35;;;20.90;77.90;;;;;;5054062;28;20017;-43
2020/12/23 22:06:16;;;;;;;40.40;23.15;;;20.90;77.90;;;;;;5053934;28;20040;-42
2020/12/23 22:08:42;;;;;;;34.47;21.50;;;20.80;77.90;;;;;;5053976;28;20071;-43
2020/12/23 22:11:09;;;;;;;33.58;21.00;;;20.80;77.80;;;;;;5054057;28;20137;-42
2020/12/23 22:13:34;;;;;;;31.33;20.30;;;20.80;77.80;;;;;;5053738;28;20025;-43
2020/12/23 22:16:01;;;;;;;29.77;20.02;;;20.80;77.70;;;;;;5053856;28;20414;-43
2020/12/23 22:18:27;;;;;;;30.17;20.40;;;20.80;77.70;;;;;;5053858;28;20029;-42
2020/12/23 22:20:53;;;;;;;27.42;18.40;;;20.80;77.70;;;;;;5053568;28;20028;-42
2020/12/23 22:23:18;;;;;;;31.75;19.00;;;20.80;77.70;;;;;;5053725;28;20033;-43
2020/12/23 22:25:44;;;;;;;29.40;19.58;;;20.80;77.70;;;;;;5053521;28;20058;-43
2020/12/23 22:28:10;;;;;;;27.90;18.20;;;20.80;77.50;;;;;;5053562;28;20482;-43
2020/12/23 22:30:36;;;;;;;26.85;17.67;;;20.80;77.50;;;;;;5053697;28;20031;-43
2020/12/23 22:33:02;;;;;;;25.20;16.98;;;20.80;77.60;;;;;;5053764;28;20032;-43
2020/12/23 22:35:27;;;;;;;24.20;16.45;;;20.80;77.50;;;;;;5053345;28;20051;-43
2020/12/23 22:37:53;;;;;;;25.95;16.48;;;20.80;77.50;;;;;;5053483;28;20428;-42
2020/12/23 22:40:19;;;;;;;27.85;17.13;;;20.80;77.40;;;;;;5053402;28;20099;-43
2020/12/23 22:42:45;;;;;;;26.80;16.25;;;20.80;77.40;;;;;;5053284;28;20025;-43
2020/12/23 22:45:11;;;;;;;24.00;15.48;;;20.80;77.40;;;;;;5053317;28;20083;-42
2020/12/23 22:47:37;;;;;;;25.83;16.92;;;20.80;77.40;;;;;;5052810;28;20017;-42
2020/12/23 22:50:07;;;;;;;26.75;17.40;;;20.80;77.50;;;;;;5053180;28;20078;-42
2020/12/23 22:52:39;;;;;;;23.05;16.05;;;20.80;78.10;;;;;;5053256;28;20094;-42
2020/12/23 22:55:07;;;;;;;24.90;15.50;;;20.80;77.50;;;;;;5053227;28;20036;-42
2020/12/23 22:57:33;;;;;;;26.80;15.90;;;20.80;77.40;;;;;;5053162;28;20025;-43
2020/12/23 23:00:03;;;;;;;25.17;15.88;;;20.80;77.20;;;;;;5053099;28;20029;-43
2020/12/23 23:02:32;;;;;;;26.85;15.70;;;20.80;77.30;;;;;;5052961;28;20405;-43
2020/12/23 23:04:57;;;;;;;22.23;15.23;;;20.80;77.20;;;;;;5052982;28;20056;-43
2020/12/23 23:07:23;;;;;;;26.00;16.73;;;20.80;77.20;;;;;;5052992;28;20068;-42
2020/12/23 23:09:50;;;;;;;22.90;15.40;;;20.70;77.20;;;;;;5052633;28;20036;-42
2020/12/23 23:12:19;;;;;;;22.42;14.75;;;20.80;77.20;;;;;;5052941;28;20056;-43
2020/12/23 23:14:44;;;;;;;21.27;15.13;;;20.70;77.20;;;;;;5052894;28;20028;-42
2020/12/23 23:17:10;;;;;;;23.05;14.95;;;20.70;77.10;;;;;;5052704;28;20440;-43
2020/12/23 23:19:36;;;;;;;23.35;15.50;;;20.70;77.00;;;;;;5053005;28;20389;-42
2020/12/23 23:22:06;;;;;;;24.13;15.40;;;20.70;77.10;;;;;;5052788;28;20036;-43
2020/12/23 23:24:33;;;;;;;23.80;15.40;;;20.70;77.10;;;;;;5051645;28;20029;-43
2020/12/23 23:27:00;;;;;;;24.27;15.93;;;20.70;77.00;;;;;;5052796;28;20022;-43
2020/12/23 23:29:25;;;;;;;22.90;15.20;;;20.70;77.10;;;;;;5052650;28;20025;-42
2020/12/23 23:31:51;;;;;;;25.85;15.30;;;20.70;77.00;;;;;;5052536;28;20079;-43
2020/12/23 23:34:17;;;;;;;22.98;15.35;;;20.70;77.00;;;;;;5052376;28;20025;-42
2020/12/23 23:36:43;;;;;;;24.08;14.75;;;20.70;77.00;;;;;;5052508;28;20076;-43
2020/12/23 23:39:09;;;;;;;22.55;15.23;;;20.70;77.00;;;;;;5052482;28;20447;-43
2020/12/23 23:41:34;;;;;;;24.52;15.48;;;20.70;77.00;;;;;;5052748;28;20036;-42
2020/12/23 23:44:00;;;;;;;24.95;15.02;;;20.70;77.00;;;;;;5052554;28;20037;-43
2020/12/23 23:46:26;;;;;;;24.45;16.77;;;20.70;76.90;;;;;;5052415;28;20025;-43
2020/12/23 23:48:51;;;;;;;22.33;14.13;;;20.70;76.90;;;;;;5052543;28;20370;-42
2020/12/23 23:51:17;;;;;;;22.13;15.05;;;20.70;77.00;;;;;;5052562;28;20025;-43
2020/12/23 23:53:43;;;;;;;24.38;15.00;;;20.70;77.50;;;;;;5052486;28;20110;-43
2020/12/23 23:56:09;;;;;;;20.60;14.48;;;20.70;76.90;;;;;;5052354;28;20478;-42
2020/12/23 23:58:35;;;;;;;23.98;14.77;;;20.70;76.90;;;;;;5052485;28;20040;-43
